Time;durP1;ratioP1;P1;durP2;ratioP2;P2;SDS_P1;SDS_P2;PMS_P1;PMS_P2;Temp;Humidity;BMP_temperature;BMP_pressure;BME280_temperature;BME280_humidity;BME280_pressure;Samples;Min_cycle;Max_cycle;Signal;HPM_P1;HPM_P2
2022/06/20 00:01:27;;;;;;;;;;;;;;;30.54;34.86;93681.69;5064181;28;7280;-61
2022/06/20 00:04:00;;;;;;;;;;;;;;;30.49;34.81;93685.41;5063988;28;9068;-61
2022/06/20 00:06:29;;;;;;;;;;;;;;;30.50;35.55;93686.13;5050032;28;8517;-61
2022/06/20 00:08:57;;;;;;;;;;;;;;;30.48;34.97;93681.16;5069294;28;7397;-61
2022/06/20 00:11:36;;;;;;;;;;;;;;;30.43;35.43;93676.53;5070158;28;7242;-61
2022/06/20 00:14:03;;;;;;;;;;;;;;;30.45;35.07;93681.53;5043986;28;7569;-61
2022/06/20 00:16:35;;;;;;;;;;;;;;;30.44;35.01;93689.13;5062138;28;9127;-61
2022/06/20 00:19:04;;;;;;;;;;;;;;;30.43;34.88;93684.88;5062138;28;7504;-61
2022/06/20 00:21:32;;;;;;;;;;;;;;;30.41;35.30;93689.50;5032297;28;7064;-61
2022/06/20 00:24:01;;;;;;;;;;;;;;;30.43;35.30;93695.97;5056865;28;7950;-61
2022/06/20 00:26:31;;;;;;;;;;;;;;;30.39;35.34;93687.28;5040541;28;9211;-61
2022/06/20 00:28:57;;;;;;;;;;;;;;;30.41;35.04;93689.50;5050826;28;7267;-61
2022/06/20 00:31:25;;;;;;;;;;;;;;;30.41;35.03;93683.94;5043941;28;7345;-61
2022/06/20 00:33:51;;;;;;;;;;;;;;;30.41;34.36;93689.50;5065281;28;9342;-61
2022/06/20 00:36:19;;;;;;;;;;;;;;;30.38;35.06;93696.91;5041973;28;9066;-61
2022/06/20 00:38:51;;;;;;;;;;;;;;;30.38;34.82;93701.72;5046482;28;8821;-61
2022/06/20 00:41:23;;;;;;;;;;;;;;;30.37;34.35;93700.97;5017248;28;7077;-61
2022/06/20 00:43:54;;;;;;;;;;;;;;;30.39;34.38;93692.09;5049833;28;7059;-61
2022/06/20 00:46:27;;;;;;;;;;;;;;;30.36;35.65;93693.22;5045836;28;9429;-61
2022/06/20 00:49:05;;;;;;;;;;;;;;;30.36;34.39;93693.94;5042185;28;9766;-61
2022/06/20 00:51:33;;;;;;;;;;;;;;;30.34;35.05;93690.28;5050708;28;9091;-61
2022/06/20 00:54:22;;;;;;;;;;;;;;;30.32;35.18;93704.69;5048143;28;7335;-61
2022/06/20 00:57:14;;;;;;;;;;;;;;;30.32;34.53;93698.41;5050707;28;7930;-61
2022/06/20 00:59:52;;;;;;;;;;;;;;;30.29;34.24;93699.50;5067034;28;7110;-61
2022/06/20 01:02:31;;;;;;;;;;;;;;;30.28;34.48;93704.31;5068523;28;7188;-61
2022/06/20 01:05:21;;;;;;;;;;;;;;;30.29;35.54;93705.78;5042306;28;7459;-61
2022/06/20 01:07:57;;;;;;;;;;;;;;;30.30;34.69;93715.56;5050650;28;9031;-61
2022/06/20 01:10:27;;;;;;;;;;;;;;;30.28;34.33;93704.31;5061466;28;9056;-61
2022/06/20 01:13:03;;;;;;;;;;;;;;;30.27;34.33;93708.38;5069909;28;7675;-61
2022/06/20 01:15:38;;;;;;;;;;;;;;;30.28;34.11;93709.09;5053624;28;6987;-61
2022/06/20 01:18:19;;;;;;;;;;;;;;;30.27;34.86;93715.97;5062341;28;8817;-61
2022/06/20 01:20:50;;;;;;;;;;;;;;;30.25;34.56;93722.09;5054118;28;7276;-61
2022/06/20 01:23:39;;;;;;;;;;;;;;;30.25;34.89;93727.63;5059606;28;7107;-61
2022/06/20 01:26:45;;;;;;;;;;;;;;;30.24;34.30;93731.69;5059028;28;7211;-61
2022/06/20 01:29:12;;;;;;;;;;;;;;;30.24;35.42;93730.94;4975819;28;7237;-61
2022/06/20 01:31:48;;;;;;;;;;;;;;;30.22;35.09;93734.28;4983089;28;7246;-61
2022/06/20 01:34:17;;;;;;;;;;;;;;;30.23;34.47;93735.75;4968261;28;7424;-61
2022/06/20 01:39:39;;;;;;;;;;;;;;;30.20;35.34;93736.88;4990331;28;7321;-61
2022/06/20 01:42:21;;;;;;;;;;;;;;;30.20;34.03;93752.78;4979358;28;9050;-61
2022/06/20 01:45:00;;;;;;;;;;;;;;;30.19;34.63;93756.84;4973525;28;6996;-61
2022/06/20 01:47:26;;;;;;;;;;;;;;;30.16;35.02;93753.16;4991273;28;7256;-61
2022/06/20 01:50:02;;;;;;;;;;;;;;;30.17;35.08;93751.84;4989867;28;9485;-61
2022/06/20 01:52:40;;;;;;;;;;;;;;;30.15;34.96;93748.16;4988077;28;7495;-61
2022/06/20 01:55:16;;;;;;;;;;;;;;;30.11;34.68;93740.22;4987808;28;6863;-61
2022/06/20 01:58:09;;;;;;;;;;;;;;;30.12;34.60;93747.25;4973411;28;6979;-61
2022/06/20 02:00:44;;;;;;;;;;;;;;;30.11;34.92;93754.06;4987967;28;7005;-61
2022/06/20 02:03:19;;;;;;;;;;;;;;;30.11;34.71;93745.75;4989712;28;7160;-61
2022/06/20 02:05:58;;;;;;;;;;;;;;;30.11;34.75;93747.78;5053082;28;7360;-61
2022/06/20 02:08:27;;;;;;;;;;;;;;;30.13;35.63;93751.47;5055055;28;9040;-61
2022/06/20 02:11:17;;;;;;;;;;;;;;;30.13;34.58;93753.50;5054474;28;7009;-62
2022/06/20 02:13:49;;;;;;;;;;;;;;;30.13;34.46;93757.03;5046151;28;6997;-61
2022/06/20 02:16:22;;;;;;;;;;;;;;;30.14;34.77;93744.66;5065842;28;7332;-61
2022/06/20 02:18:55;;;;;;;;;;;;;;;30.14;35.37;93739.09;5066107;28;7069;-61
2022/06/20 02:21:30;;;;;;;;;;;;;;;30.17;35.72;93748.31;5050559;28;8791;-61
2022/06/20 02:24:10;;;;;;;;;;;;;;;30.15;35.58;93757.22;5061064;28;8796;-61
2022/06/20 02:26:48;;;;;;;;;;;;;;;30.15;34.80;93762.75;5051325;28;9556;-61
2022/06/20 02:29:33;;;;;;;;;;;;;;;30.14;35.24;93763.31;5053222;28;8797;-61
2022/06/20 02:32:08;;;;;;;;;;;;;;;30.14;35.17;93771.66;5055743;28;7240;-61
2022/06/20 02:34:35;;;;;;;;;;;;;;;30.13;35.62;93765.34;5050755;28;6954;-61
2022/06/20 02:37:07;;;;;;;;;;;;;;;30.13;35.79;93770.91;5055718;28;7248;-61
2022/06/20 02:39:36;;;;;;;;;;;;;;;30.12;35.62;93766.66;5051530;28;8789;-61
2022/06/20 02:42:12;;;;;;;;;;;;;;;30.14;35.40;93766.84;5068935;28;7518;-61
2022/06/20 02:44:43;;;;;;;;;;;;;;;30.14;35.37;93772.41;5051898;28;8753;-61
2022/06/20 02:47:12;;;;;;;;;;;;;;;30.15;35.90;93773.84;5040859;28;7031;-61
2022/06/20 02:49:40;;;;;;;;;;;;;;;30.14;35.57;93777.19;5069104;28;7088;-61
2022/06/20 02:52:15;;;;;;;;;;;;;;;30.10;35.60;93783.09;5048109;28;7163;-61
2022/06/20 02:54:45;;;;;;;;;;;;;;;30.07;35.47;93773.13;5063305;28;7231;-61
2022/06/20 02:57:44;;;;;;;;;;;;;;;30.05;36.17;93775.72;5050242;28;7216;-61
2022/06/20 03:00:17;;;;;;;;;;;;;;;30.06;36.36;93782.72;5064928;28;7885;-61
2022/06/20 03:02:52;;;;;;;;;;;;;;;30.07;36.94;93784.22;5045214;28;7565;-61
2022/06/20 03:05:18;;;;;;;;;;;;;;;30.04;36.05;93779.78;5045392;28;7206;-60
2022/06/20 03:07:49;;;;;;;;;;;;;;;30.05;36.77;93786.06;5051909;28;7104;-60
2022/06/20 03:10:18;;;;;;;;;;;;;;;30.03;36.76;93783.84;5044596;28;7081;-60
2022/06/20 03:12:45;;;;;;;;;;;;;;;30.03;36.74;93789.41;5051483;28;7497;-60
2022/06/20 03:15:14;;;;;;;;;;;;;;;30.03;36.78;93788.66;5065057;28;9224;-60
2022/06/20 03:17:49;;;;;;;;;;;;;;;30.00;37.01;93789.75;5041973;28;7208;-61
2022/06/20 03:20:20;;;;;;;;;;;;;;;30.03;36.80;93794.22;5049447;28;7048;-60
2022/06/20 03:23:16;;;;;;;;;;;;;;;30.05;36.14;93799.94;5044723;28;7398;-60
2022/06/20 03:25:42;;;;;;;;;;;;;;;30.05;36.75;93795.13;5035435;28;7115;-60
2022/06/20 03:28:14;;;;;;;;;;;;;;;30.04;36.93;93796.41;5067388;28;7218;-60
2022/06/20 03:30:40;;;;;;;;;;;;;;;30.03;36.75;93814.38;5050075;28;7416;-61
2022/06/20 03:33:16;;;;;;;;;;;;;;;30.01;36.63;93825.28;5066850;28;6962;-60
2022/06/20 03:35:54;;;;;;;;;;;;;;;30.00;36.69;93826.56;5053126;28;8622;-60
2022/06/20 03:38:24;;;;;;;;;;;;;;;30.01;36.83;93835.63;5042266;28;7246;-60
2022/06/20 03:40:50;;;;;;;;;;;;;;;30.00;36.83;93839.69;5055417;28;7250;-60
2022/06/20 03:43:22;;;;;;;;;;;;;;;29.99;37.29;93838.97;5060820;28;7023;-60
2022/06/20 03:46:11;;;;;;;;;;;;;;;29.98;37.09;93845.78;5051344;28;8461;-61
2022/06/20 03:48:45;;;;;;;;;;;;;;;29.97;36.57;93846.34;5035038;28;8981;-60
2022/06/20 03:51:22;;;;;;;;;;;;;;;29.94;36.79;93845.41;5040599;28;7228;-60
2022/06/20 03:54:11;;;;;;;;;;;;;;;29.97;37.24;93851.91;5049478;28;7076;-60
2022/06/20 03:56:42;;;;;;;;;;;;;;;29.94;37.31;93853.72;5040099;28;7354;-60
2022/06/20 03:59:17;;;;;;;;;;;;;;;29.96;37.16;93855.94;5045897;28;7038;-61
2022/06/20 04:02:29;;;;;;;;;;;;;;;29.95;37.40;93865.56;5052636;28;9515;-60
2022/06/20 04:05:00;;;;;;;;;;;;;;;29.95;37.19;93869.06;4959926;28;9437;-61
2022/06/20 04:07:45;;;;;;;;;;;;;;;29.95;37.48;93877.38;4947833;28;9353;-60
2022/06/20 04:13:15;;;;;;;;;;;;;;;29.93;37.58;93888.28;4959266;28;9205;-61
2022/06/20 04:15:58;;;;;;;;;;;;;;;29.92;37.27;93881.28;4961319;28;7261;-60
2022/06/20 04:18:38;;;;;;;;;;;;;;;29.91;37.17;93887.34;4943653;28;9460;-60
2022/06/20 04:21:05;;;;;;;;;;;;;;;29.91;37.42;93899.19;4950625;28;7311;-60
2022/06/20 04:23:39;;;;;;;;;;;;;;;29.88;37.83;93905.84;4963996;28;7014;-60
2022/06/20 04:26:18;;;;;;;;;;;;;;;29.87;37.98;93915.44;4960336;28;7911;-60
2022/06/20 04:28:56;;;;;;;;;;;;;;;29.89;37.71;93918.41;4960118;28;7452;-60
2022/06/20 04:31:42;;;;;;;;;;;;;;;29.87;37.15;93917.47;4965059;28;7015;-61
2022/06/20 04:34:13;;;;;;;;;;;;;;;29.89;37.65;93923.22;4962826;28;7259;-60
2022/06/20 04:37:15;;;;;;;;;;;;;;;29.87;37.94;93918.22;4959883;28;7256;-61
2022/06/20 04:39:52;;;;;;;;;;;;;;;29.87;37.43;93917.47;4958123;28;7672;-60
2022/06/20 04:42:29;;;;;;;;;;;;;;;29.87;37.50;93918.22;4981812;28;9483;-60
2022/06/20 04:45:27;;;;;;;;;;;;;;;29.83;37.75;93917.84;4982426;28;7971;-60
2022/06/20 04:48:06;;;;;;;;;;;;;;;29.79;38.83;93925.78;4925970;28;7866;-60
2022/06/20 04:50:35;;;;;;;;;;;;;;;29.78;38.48;93922.28;4918766;28;7282;-60
2022/06/20 04:53:33;;;;;;;;;;;;;;;29.78;38.46;93918.75;4921800;29;7678;-60
2022/06/20 04:56:27;;;;;;;;;;;;;;;29.80;38.28;93927.25;4916648;29;8938;-60
2022/06/20 04:59:00;;;;;;;;;;;;;;;29.79;38.93;93926.53;4901198;29;7027;-60
2022/06/20 05:01:34;;;;;;;;;;;;;;;29.79;38.09;93921.00;4909516;29;7002;-60
2022/06/20 05:04:17;;;;;;;;;;;;;;;29.78;38.79;93924.28;4907562;29;7081;-61
2022/06/20 05:06:46;;;;;;;;;;;;;;;29.78;39.31;93929.84;4911224;29;6985;-61
2022/06/20 05:09:17;;;;;;;;;;;;;;;29.81;39.43;93931.53;4905939;29;7224;-60
2022/06/20 05:11:53;;;;;;;;;;;;;;;29.79;38.82;93925.78;4911709;29;7183;-60
2022/06/20 05:14:34;;;;;;;;;;;;;;;29.81;38.54;93931.53;4905006;29;7243;-60
2022/06/20 05:17:31;;;;;;;;;;;;;;;29.82;39.54;93938.53;4909171;29;7250;-60
2022/06/20 05:20:08;;;;;;;;;;;;;;;29.82;39.06;93938.53;4870085;29;7244;-60
2022/06/20 05:22:46;;;;;;;;;;;;;;;29.81;39.27;93939.84;4882662;29;7993;-61
2022/06/20 05:25:21;;;;;;;;;;;;;;;29.82;39.12;93941.31;4893141;29;9259;-60
2022/06/20 05:27:57;;;;;;;;;;;;;;;29.84;39.43;93949.09;4902954;29;7200;-60
2022/06/20 05:30:29;;;;;;;;;;;;;;;29.85;39.25;93954.09;4894011;29;9062;-60
2022/06/20 05:33:19;;;;;;;;;;;;;;;29.84;38.80;93949.09;4933852;28;7255;-60
2022/06/20 05:35:47;;;;;;;;;;;;;;;29.86;38.95;93947.25;4944850;28;7399;-60
2022/06/20 05:38:39;;;;;;;;;;;;;;;29.85;39.43;93953.34;4970045;28;7433;-60
2022/06/20 05:41:12;;;;;;;;;;;;;;;29.85;39.42;93961.66;4965319;28;7269;-60
2022/06/20 05:43:41;;;;;;;;;;;;;;;29.85;39.56;93962.41;4978297;28;7247;-60
2022/06/20 05:46:42;;;;;;;;;;;;;;;29.86;39.23;93963.91;4970885;28;9717;-60
2022/06/20 05:49:17;;;;;;;;;;;;;;;29.86;39.06;93974.97;4963618;28;9070;-60
2022/06/20 05:51:45;;;;;;;;;;;;;;;29.86;38.92;93974.97;4956924;28;7745;-60
2022/06/20 05:54:26;;;;;;;;;;;;;;;29.86;39.04;93974.25;4953196;28;8094;-60
2022/06/20 05:56:59;;;;;;;;;;;;;;;29.88;38.63;93969.63;5018559;28;7262;-60
2022/06/20 05:59:28;;;;;;;;;;;;;;;29.87;38.80;93984.03;5067693;28;7372;-60
2022/06/20 06:02:03;;;;;;;;;;;;;;;29.85;38.33;93979.03;5070256;28;7009;-60
2022/06/20 06:04:41;;;;;;;;;;;;;;;29.87;37.87;93986.78;5043540;28;7182;-60
2022/06/20 06:07:33;;;;;;;;;;;;;;;29.88;37.59;93989.03;5053874;28;7139;-60
2022/06/20 06:10:27;;;;;;;;;;;;;;;29.89;38.13;93996.06;5053806;28;7246;-60
2022/06/20 06:13:11;;;;;;;;;;;;;;;29.88;37.52;94002.91;5072935;28;9426;-60
2022/06/20 06:19:21;;;;;;;;;;;;;;;29.89;37.69;93998.06;5066475;28;9290;-60
2022/06/20 06:21:51;;;;;;;;;;;;;;;29.90;37.14;93997.53;5067299;28;8020;-60
2022/06/20 06:24:22;;;;;;;;;;;;;;;29.88;37.72;94011.22;5047934;28;9597;-60
2022/06/20 06:26:57;;;;;;;;;;;;;;;29.89;37.28;94009.16;5050745;28;7331;-61
2022/06/20 06:29:37;;;;;;;;;;;;;;;29.90;37.41;94007.91;5049420;28;9246;-61
2022/06/20 06:32:16;;;;;;;;;;;;;;;29.90;37.26;94013.44;5068861;28;7179;-61
2022/06/20 06:34:50;;;;;;;;;;;;;;;29.91;38.61;94010.09;5050285;28;7494;-60
2022/06/20 06:37:35;;;;;;;;;;;;;;;29.88;37.89;94005.69;5044128;28;7264;-61
2022/06/20 06:40:13;;;;;;;;;;;;;;;29.88;38.10;94004.94;5050627;28;9075;-61
2022/06/20 06:42:41;;;;;;;;;;;;;;;29.88;37.69;94008.44;5053743;28;7895;-61
2022/06/20 06:45:21;;;;;;;;;;;;;;;29.89;40.59;94015.47;5052466;28;7259;-61
2022/06/20 06:48:05;;;;;;;;;;;;;;;29.87;39.41;94011.75;5049823;28;9568;-61
2022/06/20 06:50:43;;;;;;;;;;;;;;;29.89;38.49;94020.25;5061962;28;9445;-61
2022/06/20 06:53:16;;;;;;;;;;;;;;;29.87;39.14;94015.28;5059029;28;7214;-61
2022/06/20 06:55:53;;;;;;;;;;;;;;;29.89;38.94;94018.22;5048850;28;9321;-61
2022/06/20 06:58:34;;;;;;;;;;;;;;;29.90;39.32;94025.28;5050310;28;9087;-61
2022/06/20 07:01:07;;;;;;;;;;;;;;;29.93;39.27;94024.16;5049795;28;9299;-61
2022/06/20 07:03:42;;;;;;;;;;;;;;;29.92;39.38;94019.91;5055424;28;9135;-62
2022/06/20 07:06:42;;;;;;;;;;;;;;;29.95;39.54;94027.13;5042178;28;7229;-62
2022/06/20 07:09:16;;;;;;;;;;;;;;;29.96;39.18;94039.72;5064046;28;7910;-61
2022/06/20 07:12:11;;;;;;;;;;;;;;;29.97;39.63;94034.91;5050421;28;9375;-61
2022/06/20 07:14:45;;;;;;;;;;;;;;;29.97;39.42;94035.63;4942555;28;7180;-62
2022/06/20 07:17:47;;;;;;;;;;;;;;;29.97;38.83;94037.69;4963266;28;6942;-61
2022/06/20 07:20:21;;;;;;;;;;;;;;;29.95;38.99;94032.66;4965759;28;7522;-61
2022/06/20 07:23:00;;;;;;;;;;;;;;;29.97;39.31;94041.19;4964521;28;7250;-61
2022/06/20 07:25:35;;;;;;;;;;;;;;;29.97;40.36;94037.69;4952583;28;9125;-61
2022/06/20 07:28:15;;;;;;;;;;;;;;;29.96;40.66;94045.25;4956190;28;7157;-61
2022/06/20 07:30:50;;;;;;;;;;;;;;;29.98;40.49;94041.94;4944531;28;7657;-62
2022/06/20 07:33:31;;;;;;;;;;;;;;;29.99;41.04;94044.19;4966000;28;7250;-61
2022/06/20 07:36:04;;;;;;;;;;;;;;;30.00;40.28;94051.19;4960981;28;9805;-61
2022/06/20 07:38:48;;;;;;;;;;;;;;;29.99;40.87;94037.88;4954314;28;7035;-61
2022/06/20 07:41:32;;;;;;;;;;;;;;;30.01;40.33;94035.31;4949798;28;7706;-62
2022/06/20 07:44:31;;;;;;;;;;;;;;;30.02;40.24;94037.50;4952994;28;7316;-61
2022/06/20 07:47:18;;;;;;;;;;;;;;;30.02;40.80;94036.78;4954259;28;9423;-60
2022/06/20 07:49:46;;;;;;;;;;;;;;;30.02;41.01;94048.59;4952945;28;8205;-61
2022/06/20 07:52:38;;;;;;;;;;;;;;;30.02;41.02;94047.88;5038047;28;7057;-61
2022/06/20 07:55:29;;;;;;;;;;;;;;;30.02;40.54;94045.84;5042270;28;7364;-61
2022/06/20 07:58:05;;;;;;;;;;;;;;;30.00;41.32;94045.66;5043123;28;8750;-62
2022/06/20 08:00:44;;;;;;;;;;;;;;;30.01;40.86;94036.03;5048456;28;7239;-61
2022/06/20 08:03:52;;;;;;;;;;;;;;;30.02;40.57;94043.06;5044864;28;7205;-62
2022/06/20 08:06:37;;;;;;;;;;;;;;;30.01;40.65;94036.03;4994000;28;9471;-62
2022/06/20 08:09:20;;;;;;;;;;;;;;;30.01;41.13;94030.50;5003187;28;7147;-61
2022/06/20 08:12:23;;;;;;;;;;;;;;;30.01;40.30;94030.50;4988829;28;8916;-61
2022/06/20 08:15:00;;;;;;;;;;;;;;;30.04;41.15;94036.97;4949454;29;9395;-61
2022/06/20 08:17:29;;;;;;;;;;;;;;;30.05;40.23;94033.66;4933959;29;7249;-61
2022/06/20 08:20:06;;;;;;;;;;;;;;;30.08;40.59;94040.84;4933966;29;9107;-61
2022/06/20 08:23:26;;;;;;;;;;;;;;;30.10;40.40;94043.09;4948908;28;7968;-61
2022/06/20 08:26:01;;;;;;;;;;;;;;;30.09;40.58;94041.59;4927170;28;9019;-62
2022/06/20 08:28:53;;;;;;;;;;;;;;;30.09;40.63;94039.59;4927440;29;7176;-62
2022/06/20 08:31:42;;;;;;;;;;;;;;;30.10;40.67;94043.09;4924588;29;7207;-61
2022/06/20 08:34:22;;;;;;;;;;;;;;;30.11;40.74;94047.34;4927117;29;7074;-61
2022/06/20 08:37:13;;;;;;;;;;;;;;;30.11;40.60;94050.88;4928087;29;7800;-61
2022/06/20 08:39:56;;;;;;;;;;;;;;;30.11;40.64;94047.34;4924910;28;7194;-62
2022/06/20 08:43:07;;;;;;;;;;;;;;;30.10;41.57;94049.38;4957205;28;7279;-62
2022/06/20 08:45:35;;;;;;;;;;;;;;;30.11;40.83;94042.56;4949757;28;7087;-61
2022/06/20 08:48:01;;;;;;;;;;;;;;;30.11;41.13;94042.56;4971590;28;8963;-61
2022/06/20 08:51:05;;;;;;;;;;;;;;;30.13;41.30;94039.97;4970883;28;7104;-61
2022/06/20 08:53:56;;;;;;;;;;;;;;;30.14;39.74;94043.47;4968927;28;7918;-62
2022/06/20 08:56:44;;;;;;;;;;;;;;;30.14;40.20;94035.16;4971729;28;7003;-62
2022/06/20 08:59:22;;;;;;;;;;;;;;;30.13;40.31;94042.75;4955879;28;7068;-62
2022/06/20 09:01:50;;;;;;;;;;;;;;;30.13;40.75;94036.44;5032129;28;9598;-62
2022/06/20 09:04:25;;;;;;;;;;;;;;;30.12;40.21;94038.50;5063237;28;7414;-61
2022/06/20 09:07:13;;;;;;;;;;;;;;;30.14;41.19;94035.91;5054193;28;7063;-62
2022/06/20 09:09:47;;;;;;;;;;;;;;;30.14;41.11;94044.22;5057847;28;7018;-61
2022/06/20 09:12:47;;;;;;;;;;;;;;;30.13;41.23;94037.19;5068986;28;7425;-62
2022/06/20 09:15:51;;;;;;;;;;;;;;;30.16;40.64;94043.69;5050537;28;9374;-61
2022/06/20 09:19:00;;;;;;;;;;;;;;;30.15;40.91;94037.38;5069970;28;7268;-61
2022/06/20 09:21:33;;;;;;;;;;;;;;;30.15;40.34;94034.59;5068489;28;8740;-61
2022/06/20 09:24:03;;;;;;;;;;;;;;;30.17;40.83;94036.81;5047416;28;7274;-62
2022/06/20 09:26:44;;;;;;;;;;;;;;;30.17;40.39;94042.38;5052296;28;7027;-62
2022/06/20 09:29:27;;;;;;;;;;;;;;;30.16;40.48;94036.09;5067534;28;9009;-62
2022/06/20 09:32:18;;;;;;;;;;;;;;;30.17;40.87;94042.38;5038570;28;7279;-62
2022/06/20 09:35:24;;;;;;;;;;;;;;;30.18;40.06;94041.84;5054252;28;9097;-61
2022/06/20 09:38:34;;;;;;;;;;;;;;;30.18;39.91;94039.06;5062233;28;7236;-62
2022/06/20 09:41:29;;;;;;;;;;;;;;;30.19;40.12;94040.53;5069406;28;7391;-61
2022/06/20 09:44:41;;;;;;;;;;;;;;;30.18;40.24;94033.53;5061649;28;9710;-62
2022/06/20 09:47:50;;;;;;;;;;;;;;;30.17;40.34;94045.88;4982948;28;7286;-62
2022/06/20 09:50:25;;;;;;;;;;;;;;;30.19;39.93;94046.09;4963811;28;7249;-62
2022/06/20 09:53:06;;;;;;;;;;;;;;;30.20;40.68;94036.47;4974599;28;7329;-62
2022/06/20 09:56:08;;;;;;;;;;;;;;;30.18;40.53;94030.75;4961555;28;7250;-62
2022/06/20 09:59:12;;;;;;;;;;;;;;;30.21;40.31;94034.44;4988736;28;7939;-62
2022/06/20 10:02:01;;;;;;;;;;;;;;;30.20;40.00;94030.19;4987737;28;7842;-61
2022/06/20 10:04:57;;;;;;;;;;;;;;;30.20;39.95;94038.50;4970950;28;7276;-62
2022/06/20 10:07:36;;;;;;;;;;;;;;;30.21;40.01;94031.69;4981629;28;9096;-62
2022/06/20 10:10:17;;;;;;;;;;;;;;;30.20;40.60;94033.72;4967151;28;7283;-62
2022/06/20 10:12:58;;;;;;;;;;;;;;;30.20;40.16;94033.72;4971068;28;7544;-62
2022/06/20 10:15:37;;;;;;;;;;;;;;;30.21;39.39;94031.69;4968869;28;7070;-61
2022/06/20 10:18:27;;;;;;;;;;;;;;;30.23;39.68;94027.03;4965701;28;7304;-62
2022/06/20 10:21:04;;;;;;;;;;;;;;;30.22;40.26;94020.03;5005660;28;7000;-62
2022/06/20 10:24:17;;;;;;;;;;;;;;;30.24;39.46;94017.44;5039180;28;9746;-62
2022/06/20 10:27:06;;;;;;;;;;;;;;;30.24;40.22;94019.47;5063795;28;7290;-62
2022/06/20 10:29:50;;;;;;;;;;;;;;;30.24;40.49;94020.22;5058882;28;7560;-62
2022/06/20 10:35:59;;;;;;;;;;;;;;;30.24;39.99;94019.47;5029964;28;7265;-61
2022/06/20 10:39:02;;;;;;;;;;;;;;;30.25;40.12;94018.19;5023337;28;9138;-61
2022/06/20 10:42:04;;;;;;;;;;;;;;;30.25;39.53;94009.88;5025202;28;7223;-61
2022/06/20 10:45:02;;;;;;;;;;;;;;;30.23;39.96;94010.41;5007737;28;9094;-61
2022/06/20 10:47:47;;;;;;;;;;;;;;;30.24;40.01;94009.13;5006178;28;6991;-62
2022/06/20 10:50:25;;;;;;;;;;;;;;;30.24;39.80;94009.13;5017385;28;9486;-62
2022/06/20 10:53:15;;;;;;;;;;;;;;;30.24;39.05;94009.13;5029283;28;7548;-61
2022/06/20 10:55:41;;;;;;;;;;;;;;;30.24;39.19;94005.59;5025811;28;8937;-62
2022/06/20 10:58:26;;;;;;;;;;;;;;;30.24;39.83;94003.56;5016926;28;7725;-62
2022/06/20 11:01:34;;;;;;;;;;;;;;;30.24;39.10;93995.25;5013048;28;7403;-62
2022/06/20 11:04:39;;;;;;;;;;;;;;;30.25;38.88;93993.97;4998315;28;9070;-61
2022/06/20 11:07:44;;;;;;;;;;;;;;;30.25;39.47;93984.91;5030639;28;9197;-61
2022/06/20 11:10:41;;;;;;;;;;;;;;;30.24;39.08;93986.91;5019497;28;9503;-62
2022/06/20 11:13:44;;;;;;;;;;;;;;;30.25;39.77;93982.13;5049499;28;9432;-61
2022/06/20 11:16:22;;;;;;;;;;;;;;;30.25;39.70;93979.34;5064083;28;6979;-62
2022/06/20 11:19:11;;;;;;;;;;;;;;;30.24;39.10;93973.06;5062447;28;8106;-62
2022/06/20 11:22:11;;;;;;;;;;;;;;;30.26;38.94;93986.34;5051352;28;7006;-62
2022/06/20 11:24:41;;;;;;;;;;;;;;;30.26;39.08;93981.56;5072628;28;7110;-61
2022/06/20 11:27:27;;;;;;;;;;;;;;;30.26;39.64;93973.22;5052780;28;7283;-62
2022/06/20 11:30:14;;;;;;;;;;;;;;;30.25;38.83;93966.22;5069581;28;9029;-61
2022/06/20 11:33:05;;;;;;;;;;;;;;;30.28;38.69;93978.22;5047835;28;9700;-61
2022/06/20 11:35:40;;;;;;;;;;;;;;;30.28;38.40;93978.97;5069084;28;7276;-62
2022/06/20 11:38:31;;;;;;;;;;;;;;;30.28;39.54;93970.66;5066983;28;9148;-61
2022/06/20 11:41:12;;;;;;;;;;;;;;;30.27;39.83;93974.72;5048366;28;9473;-62
2022/06/20 11:43:50;;;;;;;;;;;;;;;30.28;39.00;93969.91;5047830;28;7316;-61
2022/06/20 11:46:54;;;;;;;;;;;;;;;30.27;39.31;93968.44;5050363;28;7353;-62
2022/06/20 11:50:07;;;;;;;;;;;;;;;30.28;39.93;93964.34;5038270;28;7253;-62
2022/06/20 11:52:55;;;;;;;;;;;;;;;30.31;39.36;93963.28;5061073;28;8376;-62
2022/06/20 11:55:51;;;;;;;;;;;;;;;30.30;39.68;93959.75;5059689;28;9315;-61
2022/06/20 11:58:51;;;;;;;;;;;;;;;30.31;39.46;93966.81;5045490;28;9214;-62
2022/06/20 12:01:28;;;;;;;;;;;;;;;30.34;40.03;93962.91;5048464;28;9500;-62
2022/06/20 12:04:36;;;;;;;;;;;;;;;30.39;38.74;93953.69;5074251;28;7344;-62
2022/06/20 12:07:20;;;;;;;;;;;;;;;30.42;39.17;93957.38;5046829;28;7254;-61
2022/06/20 12:10:07;;;;;;;;;;;;;;;30.43;39.23;93956.06;5054128;28;9165;-62
2022/06/20 12:12:58;;;;;;;;;;;;;;;30.45;39.58;93959.03;5065221;28;8415;-62
2022/06/20 12:15:34;;;;;;;;;;;;;;;30.48;38.63;93950.34;5034647;28;9564;-62
2022/06/20 12:18:34;;;;;;;;;;;;;;;30.49;38.49;93951.81;5056964;28;9449;-62
2022/06/20 12:24:02;;;;;;;;;;;;;;;30.53;38.21;93952.22;5056744;28;7058;-62
2022/06/20 12:26:39;;;;;;;;;;;;;;;30.56;38.96;93946.84;5053187;28;6932;-62
2022/06/20 12:29:15;;;;;;;;;;;;;;;30.56;39.18;93944.09;5055376;28;7248;-62
2022/06/20 12:31:48;;;;;;;;;;;;;;;30.54;39.18;93934.25;5055746;28;9133;-61
2022/06/20 12:34:56;;;;;;;;;;;;;;;30.58;38.48;93930.38;5054640;28;7354;-61
2022/06/20 12:37:57;;;;;;;;;;;;;;;30.62;39.29;93936.31;5046377;28;7338;-62
2022/06/20 12:40:49;;;;;;;;;;;;;;;30.64;39.21;93931.69;5062138;28;6927;-62
2022/06/20 12:43:21;;;;;;;;;;;;;;;30.63;38.80;93927.41;5041460;28;9132;-62
2022/06/20 12:46:11;;;;;;;;;;;;;;;30.66;39.25;93933.91;5046416;28;7385;-62
2022/06/20 12:48:58;;;;;;;;;;;;;;;30.67;38.62;93935.38;5038146;28;9523;-62
2022/06/20 12:51:45;;;;;;;;;;;;;;;30.67;38.66;93933.31;5046021;28;6982;-62
2022/06/20 12:54:25;;;;;;;;;;;;;;;30.68;38.13;93922.97;5064597;28;9473;-62
2022/06/20 12:57:23;;;;;;;;;;;;;;;30.69;38.04;93922.41;5044335;28;9034;-61
2022/06/20 13:00:01;;;;;;;;;;;;;;;30.71;39.23;93930.19;5064566;28;7738;-62
2022/06/20 13:02:39;;;;;;;;;;;;;;;30.72;38.43;93920.56;5056747;28;7239;-62
2022/06/20 13:05:35;;;;;;;;;;;;;;;30.73;37.98;93922.06;5060205;28;9069;-62
2022/06/20 13:08:28;;;;;;;;;;;;;;;30.74;38.17;93915.19;5034421;28;9103;-62
2022/06/20 13:11:12;;;;;;;;;;;;;;;30.76;38.25;93913.34;5060178;28;7243;-62
2022/06/20 13:14:06;;;;;;;;;;;;;;;30.76;38.31;93918.16;5052441;28;9025;-62
2022/06/20 13:17:03;;;;;;;;;;;;;;;30.75;38.58;93916.69;5051359;28;9190;-62
2022/06/20 13:20:05;;;;;;;;;;;;;;;30.76;38.94;93896.69;5039382;28;7618;-62
2022/06/20 13:22:54;;;;;;;;;;;;;;;30.75;37.91;93900.78;5052219;28;7364;-62
2022/06/20 13:25:43;;;;;;;;;;;;;;;30.75;37.93;93903.53;5037523;28;8221;-62
2022/06/20 13:28:44;;;;;;;;;;;;;;;30.77;38.59;93886.31;5059153;28;9101;-62
2022/06/20 13:31:21;;;;;;;;;;;;;;;30.76;38.50;93888.34;5007856;28;8814;-62
2022/06/20 13:34:31;;;;;;;;;;;;;;;30.77;38.67;93886.31;5017357;28;9480;-62
2022/06/20 13:37:25;;;;;;;;;;;;;;;30.79;38.51;93881.69;4942589;28;7218;-62
2022/06/20 13:40:38;;;;;;;;;;;;;;;30.81;38.59;93870.03;4932313;28;7612;-62
2022/06/20 13:43:26;;;;;;;;;;;;;;;30.84;38.25;93877.25;4877702;29;9160;-62
2022/06/20 13:46:11;;;;;;;;;;;;;;;30.81;37.68;93879.09;4886746;29;9576;-62
2022/06/20 13:48:46;;;;;;;;;;;;;;;30.80;37.43;93882.44;4873700;29;7202;-62
2022/06/20 13:51:24;;;;;;;;;;;;;;;30.83;37.07;93879.28;4905453;29;8765;-62
2022/06/20 13:54:04;;;;;;;;;;;;;;;30.85;37.30;93881.47;4877987;29;7251;-61
2022/06/20 13:56:38;;;;;;;;;;;;;;;30.87;36.97;93874.09;4874099;29;9120;-62
2022/06/20 13:59:29;;;;;;;;;;;;;;;30.87;37.54;93865.78;4895421;29;7198;-62
2022/06/20 14:01:59;;;;;;;;;;;;;;;30.87;36.56;93874.09;4886965;29;7034;-62
2022/06/20 14:04:34;;;;;;;;;;;;;;;30.87;36.67;93865.03;4878571;29;7466;-62
2022/06/20 14:07:04;;;;;;;;;;;;;;;30.88;36.69;93869.31;4909902;29;8206;-62
2022/06/20 14:09:51;;;;;;;;;;;;;;;30.88;38.36;93874.84;4923157;29;7247;-62
2022/06/20 14:12:49;;;;;;;;;;;;;;;30.86;37.32;93871.88;4901518;28;7352;-62
2022/06/20 14:15:30;;;;;;;;;;;;;;;30.83;37.62;93862.63;4951818;28;7002;-62
2022/06/20 14:18:29;;;;;;;;;;;;;;;30.84;38.33;93880.03;4954237;28;7324;-62
2022/06/20 14:21:08;;;;;;;;;;;;;;;30.81;37.60;93858.91;5067850;28;9043;-62
2022/06/20 14:23:38;;;;;;;;;;;;;;;30.83;36.80;93864.66;5036174;28;7386;-61
2022/06/20 14:26:26;;;;;;;;;;;;;;;30.84;37.00;93857.81;5049893;28;7055;-62
2022/06/20 14:28:55;;;;;;;;;;;;;;;30.83;37.42;93853.53;5050542;28;8786;-62
2022/06/20 14:31:30;;;;;;;;;;;;;;;30.82;38.25;93855.56;5047534;28;8748;-62